Time;durP1;ratioP1;P1;durP2;ratioP2;P2;SDS_P1;SDS_P2;PMS_P1;PMS_P2;Temp;Humidity;BMP_temperature;BMP_pressure;BME280_temperature;BME280_humidity;BME280_pressure;Samples;Min_cycle;Max_cycle;Signal;HPM_P1;HPM_P2
2022/05/12 00:00:59;;;;;;;4.88;4.40;;;16.80;99.90;;;;;;5075742;28;20021;-61
2022/05/12 00:03:25;;;;;;;4.10;3.80;;;16.90;99.90;;;;;;5075423;28;20025;-61
2022/05/12 00:05:51;;;;;;;3.75;3.45;;;16.90;99.90;;;;;;5075443;28;20040;-61
2022/05/12 00:08:17;;;;;;;3.97;3.67;;;16.90;99.90;;;;;;5075370;28;20065;-63
2022/05/12 00:10:42;;;;;;;5.95;5.32;;;16.90;99.90;;;;;;5075373;28;20073;-63
2022/05/12 00:13:09;;;;;;;5.88;5.28;;;16.90;99.90;;;;;;5075192;28;20024;-62
2022/05/12 00:15:37;;;;;;;5.50;5.00;;;16.70;99.90;;;;;;5075158;28;20017;-62
2022/05/12 00:18:06;;;;;;;5.38;4.95;;;16.70;99.90;;;;;;5075126;28;20031;-61
2022/05/12 00:20:36;;;;;;;5.63;5.13;;;16.80;99.90;;;;;;5075426;28;20024;-63
2022/05/12 00:23:10;;;;;;;4.40;4.10;;;16.80;99.90;;;;;;5075205;28;20027;-63
2022/05/12 00:25:37;;;;;;;4.57;4.18;;;16.70;99.90;;;;;;5074864;28;20028;-63
2022/05/12 00:28:03;;;;;;;5.68;4.88;;;16.80;99.90;;;;;;5075123;28;20109;-64
2022/05/12 00:30:29;;;;;;;4.70;4.30;;;16.80;99.90;;;;;;5074811;28;20016;-62
2022/05/12 00:32:55;;;;;;;4.18;3.80;;;16.80;99.90;;;;;;5075019;28;20031;-63
2022/05/12 00:35:20;;;;;;;4.35;3.95;;;16.80;99.90;;;;;;5074987;28;20486;-62
2022/05/12 00:37:46;;;;;;;4.53;4.10;;;16.80;99.90;;;;;;5074695;28;20032;-62
2022/05/12 00:40:14;;;;;;;4.07;3.72;;;16.80;99.90;;;;;;5074817;28;20078;-61
2022/05/12 00:43:04;;;;;;;4.70;4.18;;;16.90;99.90;;;;;;5074816;28;20017;-62
2022/05/12 00:45:35;;;;;;;3.92;3.63;;;16.90;99.90;;;;;;5074711;28;20025;-62
2022/05/12 00:48:02;;;;;;;4.78;4.38;;;16.90;99.90;;;;;;5074702;28;20037;-61
2022/05/12 00:50:36;;;;;;;4.65;4.03;;;16.90;99.90;;;;;;5074572;28;20418;-63
2022/05/12 00:53:06;;;;;;;3.88;3.47;;;17.00;99.90;;;;;;5074617;28;20363;-63
2022/05/12 00:55:36;;;;;;;4.07;3.67;;;16.90;99.90;;;;;;5074527;28;20050;-64
2022/05/12 00:58:06;;;;;;;3.72;3.45;;;16.90;99.90;;;;;;5074092;28;20406;-62
2022/05/12 01:00:32;;;;;;;4.47;4.18;;;16.90;99.90;;;;;;5074565;28;20052;-63
2022/05/12 01:03:02;;;;;;;4.35;3.95;;;16.80;99.90;;;;;;5074566;28;20097;-63
2022/05/12 01:05:29;;;;;;;3.88;3.55;;;16.90;99.90;;;;;;5074200;28;20025;-63
2022/05/12 01:07:56;;;;;;;3.25;2.95;;;16.90;99.90;;;;;;5074037;28;20032;-61
2022/05/12 01:10:23;;;;;;;3.58;3.20;;;16.80;99.90;;;;;;5074075;28;20024;-64
2022/05/12 01:12:50;;;;;;;4.32;3.30;;;16.80;99.90;;;;;;5074007;28;20020;-61
2022/05/12 01:15:18;;;;;;;5.03;4.57;;;16.70;99.90;;;;;;5074196;28;20048;-62
2022/05/12 01:17:45;;;;;;;4.70;4.30;;;16.70;99.90;;;;;;5073954;28;20166;-62
2022/05/12 01:20:11;;;;;;;4.70;4.30;;;16.70;99.90;;;;;;5074002;28;20050;-63
2022/05/12 01:22:56;;;;;;;4.47;4.07;;;16.60;99.90;;;;;;5073941;28;20501;-62
2022/05/12 01:25:27;;;;;;;3.45;3.15;;;16.60;99.90;;;;;;5073721;28;20021;-63
2022/05/12 01:27:53;;;;;;;3.33;3.13;;;16.60;99.90;;;;;;5073968;28;20118;-62
2022/05/12 01:30:21;;;;;;;3.75;3.45;;;16.50;99.90;;;;;;5073813;28;20462;-63
2022/05/12 01:32:47;;;;;;;4.40;4.00;;;16.40;99.90;;;;;;5073634;28;20028;-62
2022/05/12 01:35:15;;;;;;;4.50;4.10;;;16.40;99.90;;;;;;5073703;28;20021;-61
2022/05/12 01:37:43;;;;;;;4.85;4.45;;;16.40;99.90;;;;;;5073465;28;20107;-62
2022/05/12 01:40:11;;;;;;;4.78;4.38;;;16.30;99.90;;;;;;5073570;28;20479;-61
2022/05/12 01:42:37;;;;;;;3.78;3.35;;;16.30;99.90;;;;;;5073695;28;20421;-63
2022/05/12 01:45:06;;;;;;;4.40;3.92;;;16.20;99.90;;;;;;5073667;28;20425;-62
2022/05/12 01:47:33;;;;;;;5.53;4.63;;;16.20;99.90;;;;;;5073358;28;20119;-62
2022/05/12 01:49:58;;;;;;;4.40;4.00;;;16.20;99.90;;;;;;5073541;28;20062;-63
2022/05/12 01:52:24;;;;;;;4.60;4.18;;;16.10;99.90;;;;;;5073544;28;20024;-62
2022/05/12 01:54:50;;;;;;;5.90;5.13;;;16.10;99.90;;;;;;5073418;28;20097;-61
2022/05/12 01:57:16;;;;;;;6.55;5.85;;;16.10;99.90;;;;;;5073277;28;20044;-61
2022/05/12 01:59:42;;;;;;;5.85;5.35;;;15.90;99.90;;;;;;5073348;28;20033;-62
2022/05/12 02:02:08;;;;;;;5.30;4.60;;;15.80;99.90;;;;;;5073309;28;20077;-61
2022/05/12 02:04:33;;;;;;;4.63;4.22;;;15.80;99.90;;;;;;5073295;28;20382;-62
2022/05/12 02:06:59;;;;;;;5.40;4.45;;;15.80;99.90;;;;;;5073069;28;20035;-61
2022/05/12 02:09:25;;;;;;;5.43;4.50;;;15.90;99.90;;;;;;5073162;28;20021;-62
2022/05/12 02:11:51;;;;;;;7.25;6.20;;;15.90;99.90;;;;;;5073315;28;20028;-63
2022/05/12 02:14:16;;;;;;;5.68;5.10;;;15.80;99.90;;;;;;5073182;28;20379;-61
2022/05/12 02:16:42;;;;;;;4.97;4.35;;;15.70;99.90;;;;;;5073158;28;20029;-62
2022/05/12 02:19:09;;;;;;;4.80;4.35;;;15.70;99.90;;;;;;5073169;28;20389;-61
2022/05/12 02:21:36;;;;;;;4.82;4.32;;;15.70;99.90;;;;;;5072480;28;20026;-63
2022/05/12 02:24:02;;;;;;;4.90;3.97;;;15.70;99.90;;;;;;5073166;28;20027;-63
2022/05/12 02:26:28;;;;;;;4.60;4.18;;;15.70;99.90;;;;;;5072957;28;20031;-61
2022/05/12 02:28:54;;;;;;;4.00;3.60;;;15.70;99.90;;;;;;5073084;28;20021;-64
2022/05/12 02:31:20;;;;;;;3.63;3.33;;;15.70;99.90;;;;;;5073102;28;20016;-63
2022/05/12 02:33:46;;;;;;;3.67;3.38;;;15.70;99.90;;;;;;5072903;28;20021;-62
2022/05/12 02:36:12;;;;;;;3.45;3.20;;;15.70;99.90;;;;;;5073009;28;20029;-61
2022/05/12 02:38:39;;;;;;;6.30;4.00;;;15.60;99.90;;;;;;5073284;28;20105;-63
2022/05/12 02:41:05;;;;;;;4.57;4.18;;;15.60;99.90;;;;;;5072929;28;20016;-61
2022/05/12 02:43:31;;;;;;;4.40;4.10;;;15.60;99.90;;;;;;5073009;28;20032;-62
2022/05/12 02:46:07;;;;;;;3.75;3.45;;;15.60;99.90;;;;;;5072989;28;20020;-61
2022/05/12 02:48:36;;;;;;;3.95;3.65;;;15.60;99.90;;;;;;5072829;28;20017;-61
2022/05/12 02:51:02;;;;;;;4.43;4.10;;;15.50;99.90;;;;;;5072588;28;20115;-62
2022/05/12 02:53:29;;;;;;;6.72;6.22;;;15.50;99.90;;;;;;5072919;28;20088;-63
2022/05/12 02:55:56;;;;;;;6.82;6.22;;;15.50;99.90;;;;;;5073016;28;20017;-62
2022/05/12 02:58:22;;;;;;;5.40;4.90;;;15.40;99.90;;;;;;5072615;28;20051;-63
2022/05/12 03:00:48;;;;;;;5.43;4.93;;;15.30;99.90;;;;;;5073086;28;20103;-62
2022/05/12 03:03:14;;;;;;;4.78;4.40;;;15.30;99.90;;;;;;5072721;28;20031;-62
2022/05/12 03:05:40;;;;;;;4.80;4.40;;;15.30;99.90;;;;;;5072573;28;20020;-62
2022/05/12 03:08:07;;;;;;;4.45;4.05;;;15.30;99.90;;;;;;5072811;28;20021;-63
2022/05/12 03:10:35;;;;;;;4.68;4.28;;;15.30;99.90;;;;;;5072597;28;20427;-63
2022/05/12 03:13:01;;;;;;;4.22;3.92;;;15.30;99.90;;;;;;5072619;28;20475;-63
2022/05/12 03:15:27;;;;;;;4.63;4.22;;;15.30;99.90;;;;;;5072658;28;20020;-63
2022/05/12 03:17:53;;;;;;;4.80;4.30;;;15.30;99.90;;;;;;5054673;28;20394;-63
2022/05/12 03:20:22;;;;;;;6.55;5.90;;;15.30;99.90;;;;;;5072759;28;20017;-62
2022/05/12 03:22:48;;;;;;;6.20;5.60;;;15.20;99.90;;;;;;5072620;28;20097;-63
2022/05/12 03:25:15;;;;;;;4.97;4.57;;;15.10;99.90;;;;;;5072448;28;20021;-64
2022/05/12 03:27:42;;;;;;;7.70;6.93;;;15.00;99.90;;;;;;5072462;28;20479;-63
2022/05/12 03:30:12;;;;;;;5.63;5.13;;;15.00;99.90;;;;;;5072477;28;20059;-63
2022/05/12 03:32:37;;;;;;;4.68;4.28;;;14.80;99.90;;;;;;5072683;28;20481;-62
2022/05/12 03:35:04;;;;;;;4.63;4.20;;;14.90;99.90;;;;;;5075066;28;20099;-62
2022/05/12 03:37:30;;;;;;;4.28;3.88;;;15.00;99.90;;;;;;5076158;28;20471;-61
2022/05/12 03:39:56;;;;;;;3.97;3.70;;;15.10;99.90;;;;;;5075879;28;20017;-63
2022/05/12 03:42:22;;;;;;;3.65;3.35;;;15.10;99.90;;;;;;5075900;28;20016;-63
2022/05/12 03:44:49;;;;;;;4.00;3.60;;;15.10;99.90;;;;;;5075933;28;20020;-63
2022/05/12 03:47:19;;;;;;;4.93;4.53;;;15.20;99.90;;;;;;5075700;28;20040;-62
2022/05/12 03:49:47;;;;;;;3.88;3.58;;;15.20;99.90;;;;;;5075741;28;20035;-61
2022/05/12 03:52:12;;;;;;;6.80;6.15;;;15.10;99.90;;;;;;5075817;28;20048;-61
2022/05/12 03:54:40;;;;;;;5.75;5.25;;;15.20;99.90;;;;;;5075731;28;20044;-62
2022/05/12 03:57:06;;;;;;;5.35;4.85;;;15.20;99.90;;;;;;5075618;28;20119;-62
2022/05/12 03:59:33;;;;;;;4.90;4.50;;;15.20;99.90;;;;;;5075618;28;20114;-62
2022/05/12 04:01:59;;;;;;;6.10;5.60;;;15.20;99.90;;;;;;5075558;28;20379;-62
2022/05/12 04:04:25;;;;;;;5.50;5.05;;;15.20;99.90;;;;;;5075605;28;20054;-62
2022/05/12 04:06:50;;;;;;;5.70;5.15;;;15.30;99.90;;;;;;5075613;28;20089;-61
2022/05/12 04:09:16;;;;;;;5.80;5.20;;;15.30;99.90;;;;;;5075667;28;20482;-63
2022/05/12 04:11:42;;;;;;;6.60;6.00;;;15.30;99.90;;;;;;5075230;28;20016;-63
2022/05/12 04:14:08;;;;;;;6.20;5.70;;;15.30;99.90;;;;;;5075377;28;20501;-63
2022/05/12 04:16:36;;;;;;;5.18;4.78;;;15.30;99.90;;;;;;5075365;28;20099;-62
2022/05/12 04:19:05;;;;;;;5.57;5.07;;;15.30;99.90;;;;;;5075106;28;20078;-63
2022/05/12 04:21:34;;;;;;;5.15;4.68;;;15.30;99.90;;;;;;5075161;28;20031;-61
2022/05/12 04:24:01;;;;;;;4.63;4.22;;;15.30;99.90;;;;;;5075432;28;20033;-61
2022/05/12 04:26:27;;;;;;;6.47;5.82;;;15.30;99.90;;;;;;5074886;28;20050;-64
2022/05/12 04:28:53;;;;;;;6.03;5.22;;;15.40;99.90;;;;;;5075294;28;20024;-63
2022/05/12 04:31:19;;;;;;;5.50;4.82;;;15.40;99.90;;;;;;5074843;28;20551;-61
2022/05/12 04:36:29;;;;;;;5.80;5.30;;;15.50;99.90;;;;;;5074977;28;20100;-63
2022/05/12 04:38:55;;;;;;;5.60;5.10;;;15.50;99.90;;;;;;5074772;28;20045;-63
2022/05/12 04:41:21;;;;;;;5.95;5.18;;;15.50;99.90;;;;;;5074776;28;20060;-63
2022/05/12 04:43:46;;;;;;;4.93;4.53;;;15.50;99.90;;;;;;5074915;28;20111;-62
2022/05/12 04:46:12;;;;;;;5.43;4.93;;;15.60;99.90;;;;;;5073838;28;20104;-62
2022/05/12 04:48:38;;;;;;;4.53;4.13;;;15.60;99.90;;;;;;5074686;28;20071;-63
2022/05/12 04:51:04;;;;;;;5.18;4.70;;;15.60;99.90;;;;;;5074582;28;20027;-64
2022/05/12 04:53:30;;;;;;;5.57;4.85;;;15.60;99.90;;;;;;5074481;28;20096;-63
2022/05/12 04:55:56;;;;;;;8.10;5.10;;;15.70;99.90;;;;;;5064186;28;20017;-61
2022/05/12 04:58:22;;;;;;;6.90;6.10;;;15.70;99.90;;;;;;5061659;28;20048;-63
2022/05/12 05:00:48;;;;;;;6.40;5.70;;;15.70;99.90;;;;;;5065743;28;20083;-66
2022/05/12 05:03:14;;;;;;;8.45;6.60;;;15.60;99.90;;;;;;5067099;28;20101;-62
2022/05/12 05:05:40;;;;;;;8.18;7.20;;;15.50;99.90;;;;;;5063282;28;20467;-64
2022/05/12 05:08:06;;;;;;;10.63;8.48;;;15.50;99.90;;;;;;5063207;28;20033;-63
2022/05/12 05:10:33;;;;;;;8.13;7.43;;;15.40;99.90;;;;;;5060679;28;20085;-62
2022/05/12 05:13:00;;;;;;;11.65;6.45;;;15.40;99.90;;;;;;5061035;28;20436;-62
2022/05/12 05:15:26;;;;;;;9.30;6.10;;;15.40;99.90;;;;;;5058941;28;20391;-64
2022/05/12 05:17:52;;;;;;;7.05;5.78;;;15.50;99.90;;;;;;5067361;28;20020;-62
2022/05/12 05:20:21;;;;;;;7.35;6.00;;;15.60;99.90;;;;;;5058947;28;20036;-64
2022/05/12 05:22:47;;;;;;;7.40;6.70;;;15.70;99.90;;;;;;5067157;28;20497;-65
2022/05/12 05:25:15;;;;;;;7.40;6.70;;;15.80;99.90;;;;;;5063895;28;20021;-58
2022/05/12 05:27:41;;;;;;;8.32;7.30;;;15.80;99.90;;;;;;5063567;28;20522;-59
2022/05/12 05:30:10;;;;;;;8.60;7.05;;;15.80;99.90;;;;;;5073953;28;20110;-58
2022/05/12 05:32:36;;;;;;;8.70;7.00;;;15.80;99.90;;;;;;5088474;28;20028;-59
2022/05/12 05:35:03;;;;;;;9.85;7.45;;;15.70;99.90;;;;;;5086210;28;20020;-59
2022/05/12 05:37:29;;;;;;;8.85;6.78;;;15.80;99.90;;;;;;5070247;28;20031;-54
2022/05/12 05:39:55;;;;;;;10.43;7.80;;;15.90;99.90;;;;;;5070918;28;20020;-59
2022/05/12 05:42:21;;;;;;;11.48;6.72;;;16.10;99.90;;;;;;5086979;28;20406;-59
2022/05/12 05:44:47;;;;;;;21.85;9.32;;;16.20;99.90;;;;;;5083643;28;20043;-59
2022/05/12 05:47:13;;;;;;;41.88;19.65;;;16.30;99.90;;;;;;5090444;28;20028;-58
2022/05/12 05:49:41;;;;;;;31.45;14.75;;;16.40;99.90;;;;;;5088921;28;20023;-59
2022/05/12 05:54:52;;;;;;;28.92;14.60;;;16.70;99.90;;;;;;5081380;28;20050;-56
2022/05/12 05:57:23;;;;;;;19.30;9.90;;;16.90;99.90;;;;;;5088151;28;20075;-58
2022/05/12 05:59:50;;;;;;;19.15;10.07;;;17.10;99.90;;;;;;5092349;28;20028;-56
2022/05/12 06:02:16;;;;;;;15.38;8.35;;;17.10;99.90;;;;;;5072476;28;20541;-59
2022/05/12 06:04:42;;;;;;;30.88;16.13;;;17.20;99.90;;;;;;5053347;28;20105;-59
2022/05/12 06:07:08;;;;;;;21.27;10.07;;;17.40;99.90;;;;;;5088699;28;20032;-59
2022/05/12 06:09:34;;;;;;;14.48;9.10;;;17.60;99.90;;;;;;5089496;28;20123;-62
2022/05/12 06:12:00;;;;;;;23.83;11.05;;;17.80;99.90;;;;;;5086296;28;20458;-58
2022/05/12 06:14:26;;;;;;;16.85;9.13;;;18.00;99.90;;;;;;5058970;28;20016;-60
2022/05/12 06:16:52;;;;;;;17.20;8.82;;;18.20;99.90;;;;;;5039782;28;20056;-67
2022/05/12 06:19:21;;;;;;;10.10;7.28;;;18.40;99.90;;;;;;5051090;28;20111;-64
2022/05/12 06:21:49;;;;;;;8.30;6.07;;;18.50;99.90;;;;;;5061438;28;20021;-59
2022/05/12 06:24:18;;;;;;;9.52;6.78;;;18.70;99.90;;;;;;5072248;28;20390;-64
2022/05/12 06:26:43;;;;;;;8.85;6.80;;;18.90;99.90;;;;;;5064697;28;20028;-61
2022/05/12 06:29:10;;;;;;;8.55;5.80;;;19.10;99.90;;;;;;5068786;28;20033;-61
2022/05/12 06:31:35;;;;;;;7.20;5.70;;;19.30;99.90;;;;;;5066291;28;20028;-62
2022/05/12 06:34:01;;;;;;;9.07;6.20;;;19.50;99.90;;;;;;5064526;28;20035;-59
2022/05/12 06:36:31;;;;;;;18.33;8.95;;;19.70;99.90;;;;;;5046853;28;20077;-60
2022/05/12 06:38:57;;;;;;;10.50;6.78;;;19.90;99.90;;;;;;5044479;28;20066;-61
2022/05/12 06:41:25;;;;;;;6.60;4.93;;;20.10;99.90;;;;;;5065715;28;20107;-63
2022/05/12 06:43:51;;;;;;;6.07;5.40;;;20.30;99.00;;;;;;5062751;28;20033;-61
2022/05/12 06:46:18;;;;;;;4.53;4.13;;;20.40;98.50;;;;;;5059695;28;20031;-61
2022/05/12 06:48:49;;;;;;;5.63;4.93;;;20.60;97.60;;;;;;5058648;28;20085;-60
2022/05/12 06:51:16;;;;;;;4.93;4.40;;;20.80;98.00;;;;;;5053937;28;20071;-60
2022/05/12 06:53:46;;;;;;;4.30;3.90;;;20.90;96.30;;;;;;5053467;28;20028;-60
2022/05/12 06:56:12;;;;;;;5.10;3.80;;;21.10;93.50;;;;;;5058808;28;20529;-63
2022/05/12 06:58:39;;;;;;;4.07;3.67;;;21.30;94.80;;;;;;5061511;28;20085;-61
2022/05/12 07:01:05;;;;;;;4.78;3.40;;;21.40;92.90;;;;;;5085277;28;20351;-60
2022/05/12 07:03:31;;;;;;;4.18;3.78;;;21.60;93.90;;;;;;5067425;28;20082;-59
2022/05/12 07:05:58;;;;;;;5.50;3.83;;;22.80;91.70;;;;;;5066020;28;20033;-62
2022/05/12 07:08:26;;;;;;;5.95;3.83;;;25.90;81.50;;;;;;5071324;28;20359;-61
2022/05/12 07:10:52;;;;;;;5.60;4.03;;;28.80;65.80;;;;;;5092499;28;20024;-59
2022/05/12 07:13:21;;;;;;;5.82;3.58;;;30.50;56.10;;;;;;5073013;28;20032;-60
2022/05/12 07:15:51;;;;;;;3.50;3.20;;;32.10;52.20;;;;;;5088851;28;20035;-59
2022/05/12 07:18:20;;;;;;;4.35;3.17;;;33.40;49.10;;;;;;5090892;28;20020;-60
2022/05/12 07:28:59;;;;;;;4.68;3.33;;;36.90;42.70;;;;;;5061715;28;20063;-62
2022/05/12 07:31:25;;;;;;;6.60;3.58;;;37.30;40.40;;;;;;5062471;28;20021;-61
2022/05/12 07:33:51;;;;;;;5.40;3.92;;;37.30;41.00;;;;;;5048208;28;20476;-61
2022/05/12 07:36:20;;;;;;;5.43;3.40;;;36.90;40.10;;;;;;5059028;28;20027;-60
2022/05/12 07:38:47;;;;;;;3.50;3.20;;;37.30;39.40;;;;;;5060588;28;20029;-57
2022/05/12 07:41:13;;;;;;;3.30;3.00;;;37.80;38.00;;;;;;5078618;28;20063;-58
2022/05/12 07:43:40;;;;;;;4.07;2.58;;;38.20;37.20;;;;;;5064369;28;20529;-60
2022/05/12 07:46:06;;;;;;;3.22;2.70;;;38.50;38.00;;;;;;5060506;28;20041;-62
2022/05/12 07:48:32;;;;;;;3.40;3.10;;;38.60;36.90;;;;;;5063063;28;20139;-62
2022/05/12 07:50:58;;;;;;;3.13;2.40;;;38.80;36.90;;;;;;5064335;28;20043;-62
2022/05/12 07:53:26;;;;;;;3.45;2.92;;;39.00;36.60;;;;;;5057421;28;20025;-62
2022/05/12 07:55:52;;;;;;;3.90;2.60;;;39.00;35.30;;;;;;5081700;28;20025;-61
2022/05/12 07:58:18;;;;;;;2.60;2.40;;;38.50;36.60;;;;;;5072391;28;20040;-61
2022/05/12 08:00:45;;;;;;;3.38;2.28;;;38.80;36.20;;;;;;5072062;28;20016;-60
2022/05/12 08:03:11;;;;;;;2.08;1.92;;;38.90;35.60;;;;;;5070173;28;20145;-60
2022/05/12 08:05:37;;;;;;;2.92;2.67;;;39.40;35.40;;;;;;5068767;28;20031;-58
2022/05/12 08:08:06;;;;;;;3.00;2.55;;;39.50;36.50;;;;;;5073335;28;20121;-58
2022/05/12 08:10:32;;;;;;;2.70;2.33;;;39.60;35.00;;;;;;5049314;28;20482;-63
2022/05/12 08:12:58;;;;;;;4.88;3.15;;;39.30;35.80;;;;;;5049583;28;20021;-61
2022/05/12 08:15:25;;;;;;;3.45;2.72;;;38.80;33.80;;;;;;5050692;28;20025;-61
2022/05/12 08:17:56;;;;;;;3.90;2.40;;;38.20;34.90;;;;;;5050765;28;20031;-61
2022/05/12 08:20:23;;;;;;;3.65;2.70;;;38.30;34.70;;;;;;5051777;28;20029;-61
2022/05/12 08:22:48;;;;;;;3.50;2.40;;;37.70;34.80;;;;;;5052344;28;20025;-60
2022/05/12 08:25:14;;;;;;;2.50;2.30;;;37.70;35.10;;;;;;5052090;28;20048;-59
2022/05/12 08:27:40;;;;;;;4.00;2.95;;;38.10;34.80;;;;;;5052999;28;20116;-62
2022/05/12 08:30:10;;;;;;;3.05;2.78;;;38.50;34.70;;;;;;5052786;28;20021;-61
2022/05/12 08:32:36;;;;;;;3.28;2.40;;;38.10;34.30;;;;;;5052199;28;20032;-60
2022/05/12 08:35:02;;;;;;;3.78;2.55;;;38.30;36.50;;;;;;5053064;28;20029;-58
2022/05/12 08:37:28;;;;;;;2.55;2.15;;;38.50;36.20;;;;;;5062290;28;20394;-59
2022/05/12 08:39:54;;;;;;;3.38;2.60;;;38.80;34.90;;;;;;5064570;28;20035;-60
2022/05/12 08:42:29;;;;;;;4.88;3.10;;;38.80;35.90;;;;;;5063914;28;20449;-59
2022/05/12 08:44:56;;;;;;;4.53;2.83;;;38.30;36.60;;;;;;5070035;28;20016;-59
2022/05/12 08:47:34;;;;;;;4.45;2.70;;;38.50;34.80;;;;;;5069257;28;20040;-59
2022/05/12 08:50:00;;;;;;;3.40;3.10;;;38.50;34.70;;;;;;5070561;28;20024;-55
2022/05/12 08:52:38;;;;;;;5.53;3.22;;;38.50;36.00;;;;;;5070773;28;20016;-61
2022/05/12 08:55:25;;;;;;;3.45;2.60;;;38.40;34.10;;;;;;5069143;28;20025;-60
2022/05/12 08:57:58;;;;;;;3.63;2.92;;;38.60;35.40;;;;;;5070572;28;20049;-60
2022/05/12 09:00:27;;;;;;;2.92;2.72;;;38.10;36.00;;;;;;5072515;28;20024;-61
2022/05/12 09:03:18;;;;;;;3.97;2.78;;;37.70;34.80;;;;;;5076401;28;20037;-61
2022/05/12 09:06:01;;;;;;;3.53;2.60;;;37.70;36.10;;;;;;5078060;28;20025;-61
2022/05/12 09:08:35;;;;;;;2.75;2.30;;;37.40;35.10;;;;;;5071173;28;20467;-62
2022/05/12 09:11:12;;;;;;;4.00;2.40;;;37.60;33.80;;;;;;5071722;28;20078;-60
2022/05/12 09:13:42;;;;;;;4.30;2.10;;;37.70;33.70;;;;;;5072028;28;20016;-59
2022/05/12 09:16:19;;;;;;;2.08;1.98;;;37.70;32.70;;;;;;5069952;28;20023;-65
2022/05/12 09:18:46;;;;;;;2.88;1.77;;;37.70;35.60;;;;;;5051230;28;20048;-60
2022/05/12 09:21:16;;;;;;;3.72;2.15;;;36.60;32.30;;;;;;5037788;28;20394;-59
2022/05/12 09:23:42;;;;;;;2.80;2.03;;;36.30;31.20;;;;;;5080229;28;20058;-60
2022/05/12 09:26:29;;;;;;;3.92;2.03;;;36.60;32.50;;;;;;5091106;28;20111;-60
2022/05/12 09:29:10;;;;;;;6.10;2.10;;;37.10;35.40;;;;;;5093061;28;20095;-61
2022/05/12 09:31:36;;;;;;;3.33;1.98;;;37.50;35.70;;;;;;5084841;28;20056;-62
2022/05/12 09:34:27;;;;;;;2.53;2.05;;;37.80;32.10;;;;;;5078799;28;20137;-62
2022/05/12 09:36:53;;;;;;;2.00;1.73;;;38.00;33.20;;;;;;5041350;28;20029;-60
2022/05/12 09:39:34;;;;;;;2.95;1.50;;;38.10;30.70;;;;;;5065467;28;20027;-59
2022/05/12 09:42:01;;;;;;;3.30;1.80;;;38.00;32.20;;;;;;5070425;28;20536;-62
2022/05/12 09:44:30;;;;;;;3.90;2.10;;;38.10;31.00;;;;;;5070947;28;20052;-60
2022/05/12 09:47:07;;;;;;;1.60;1.50;;;37.90;30.80;;;;;;5070721;28;20103;-61
2022/05/12 09:49:42;;;;;;;2.33;1.50;;;37.80;31.20;;;;;;5079464;28;20071;-60
2022/05/12 09:52:36;;;;;;;1.80;1.70;;;37.60;32.30;;;;;;5049698;28;20317;-61
2022/05/12 09:55:16;;;;;;;1.77;1.33;;;37.70;32.10;;;;;;5050159;28;20029;-62
2022/05/12 09:57:50;;;;;;;1.90;1.38;;;37.90;32.70;;;;;;5050451;28;20068;-62
2022/05/12 10:00:34;;;;;;;2.58;1.63;;;37.80;30.00;;;;;;5076495;28;20050;-62
2022/05/12 10:09:04;;;;;;;2.42;1.42;;;38.10;30.20;;;;;;5077901;28;20123;-65
2022/05/12 10:11:34;;;;;;;2.17;1.77;;;38.00;31.90;;;;;;5072995;28;20024;-64
2022/05/12 10:14:04;;;;;;;2.05;1.63;;;37.80;31.30;;;;;;5073437;28;20035;-62
2022/05/12 10:16:32;;;;;;;3.00;1.80;;;37.90;30.00;;;;;;5073463;28;20085;-63
2022/05/12 10:19:06;;;;;;;1.48;1.38;;;37.90;32.50;;;;;;5072864;28;20025;-64
2022/05/12 10:21:41;;;;;;;1.30;1.20;;;38.00;31.60;;;;;;5072086;28;20024;-62
2022/05/12 10:24:19;;;;;;;1.50;1.38;;;37.90;31.40;;;;;;5091587;28;20081;-60
2022/05/12 10:26:56;;;;;;;3.05;1.70;;;37.60;28.80;;;;;;5075958;28;20033;-64
2022/05/12 10:29:45;;;;;;;2.60;1.77;;;37.50;30.60;;;;;;5065452;28;20514;-62
2022/05/12 10:32:38;;;;;;;3.17;1.70;;;37.50;30.20;;;;;;5043598;28;20025;-59
2022/05/12 10:35:16;;;;;;;2.55;1.75;;;37.60;31.00;;;;;;5067272;28;20059;-63
2022/05/12 10:38:08;;;;;;;3.58;1.98;;;37.50;29.30;;;;;;5061718;28;20040;-60
2022/05/12 10:40:44;;;;;;;4.82;2.13;;;37.50;32.00;;;;;;5068662;28;20074;-61
2022/05/12 10:43:11;;;;;;;2.28;2.08;;;37.60;30.90;;;;;;5064906;28;20029;-59
2022/05/12 10:46:14;;;;;;;2.28;1.88;;;37.20;30.70;;;;;;5076735;28;20029;-60
2022/05/12 10:48:55;;;;;;;2.38;1.83;;;37.60;29.80;;;;;;4982879;28;20050;-61
2022/05/12 10:51:32;;;;;;;2.60;1.80;;;37.30;29.30;;;;;;5052388;28;20473;-59
2022/05/12 10:54:26;;;;;;;2.38;2.15;;;37.30;28.70;;;;;;5075883;28;20039;-59
2022/05/12 10:57:18;;;;;;;3.25;1.83;;;37.30;30.20;;;;;;5069768;28;20074;-61
2022/05/12 11:00:08;;;;;;;3.53;2.00;;;37.50;31.70;;;;;;5061974;28;20055;-64
2022/05/12 11:02:43;;;;;;;2.20;1.80;;;37.60;32.90;;;;;;5069904;28;20070;-64
2022/05/12 11:05:11;;;;;;;2.35;2.00;;;37.90;32.20;;;;;;5069237;28;20063;-58
2022/05/12 11:07:50;;;;;;;1.92;1.80;;;38.10;31.30;;;;;;5066891;28;20499;-57
2022/05/12 11:10:24;;;;;;;2.42;2.00;;;38.00;31.50;;;;;;5063595;28;20021;-59
2022/05/12 11:12:56;;;;;;;2.08;1.88;;;38.10;30.30;;;;;;5075751;28;20115;-59
2022/05/12 11:15:26;;;;;;;3.70;2.10;;;37.90;30.50;;;;;;5067633;28;20025;-59
2022/05/12 11:18:04;;;;;;;3.60;2.15;;;37.90;30.50;;;;;;5071442;28;20108;-59
2022/05/12 11:20:42;;;;;;;3.08;1.70;;;37.80;30.60;;;;;;5062969;28;20032;-63
2022/05/12 11:23:27;;;;;;;6.13;3.20;;;37.90;31.30;;;;;;5058877;28;20032;-64
2022/05/12 11:26:11;;;;;;;8.73;4.30;;;38.10;30.50;;;;;;5049678;28;20138;-59
2022/05/12 11:32:04;;;;;;;3.30;2.70;;;38.60;31.30;;;;;;5057283;28;20090;-61
2022/05/12 11:34:30;;;;;;;;;;;38.70;32.10;;;;;;5064219;28;20101;-60
2022/05/12 11:36:56;;;;;;;2.90;2.50;;;38.40;28.80;;;;;;5066942;28;20146;-63
2022/05/12 11:39:51;;;;;;;3.33;2.33;;;38.00;30.00;;;;;;5068889;28;20383;-59
2022/05/12 11:42:20;;;;;;;3.38;2.40;;;38.00;30.80;;;;;;5048322;28;20100;-61
2022/05/12 11:44:57;;;;;;;3.35;2.42;;;38.10;32.10;;;;;;5085837;28;20024;-60
2022/05/12 11:47:31;;;;;;;1.80;1.70;;;38.10;29.20;;;;;;5092045;28;20036;-63
2022/05/12 11:50:17;;;;;;;2.65;2.10;;;37.90;29.60;;;;;;5067300;28;20320;-63
2022/05/12 11:52:49;;;;;;;3.63;2.00;;;37.50;29.30;;;;;;5056928;28;20328;-63
2022/05/12 11:55:26;;;;;;;3.10;2.25;;;37.70;29.00;;;;;;5064854;28;20382;-62
2022/05/12 11:58:09;;;;;;;3.67;2.70;;;37.90;30.00;;;;;;5060444;28;20044;-63
2022/05/12 12:00:35;;;;;;;3.72;2.30;;;38.10;30.90;;;;;;5060710;28;20437;-60
2022/05/12 12:03:19;;;;;;;2.45;2.25;;;38.00;30.60;;;;;;5059115;28;20033;-60
2022/05/12 12:05:50;;;;;;;3.30;2.10;;;37.90;30.60;;;;;;5056928;28;20447;-61
2022/05/12 12:08:31;;;;;;;3.47;2.30;;;37.90;30.30;;;;;;5066146;28;20129;-65
2022/05/12 12:11:17;;;;;;;4.57;2.25;;;38.10;29.70;;;;;;5068968;28;20031;-65
2022/05/12 12:13:45;;;;;;;3.05;2.17;;;37.90;28.90;;;;;;5076750;28;20162;-63
2022/05/12 12:16:21;;;;;;;2.78;1.67;;;37.80;29.80;;;;;;5068379;28;20127;-67
2022/05/12 12:18:59;;;;;;;3.10;2.35;;;37.90;31.60;;;;;;5057898;28;20528;-61
2022/05/12 12:21:35;;;;;;;3.20;2.90;;;37.90;30.90;;;;;;5058387;28;20032;-65
2022/05/12 12:24:19;;;;;;;2.88;2.35;;;37.60;31.40;;;;;;5070475;28;20043;-66
2022/05/12 12:26:50;;;;;;;2.75;2.30;;;37.60;30.00;;;;;;5073210;28;20055;-63
2022/05/12 12:29:38;;;;;;;3.85;1.90;;;37.60;29.80;;;;;;5068402;28;20364;-62
2022/05/12 12:32:29;;;;;;;2.38;1.80;;;37.90;31.50;;;;;;5058531;28;20028;-62
2022/05/12 12:35:03;;;;;;;1.90;1.80;;;38.20;30.60;;;;;;5059269;28;20023;-63
2022/05/12 12:37:46;;;;;;;2.00;1.80;;;38.40;29.70;;;;;;5062374;28;20262;-66
2022/05/12 12:40:30;;;;;;;2.67;1.83;;;38.50;28.20;;;;;;5062741;28;20025;-62
2022/05/12 12:42:56;;;;;;;2.30;1.95;;;38.00;29.30;;;;;;5041234;28;20140;-62
2022/05/12 12:45:22;;;;;;;2.50;2.10;;;37.90;29.00;;;;;;5059490;28;20124;-67
2022/05/12 12:47:58;;;;;;;3.15;2.20;;;37.90;29.80;;;;;;5061618;28;20492;-66
2022/05/12 12:50:24;;;;;;;2.10;1.92;;;37.90;31.70;;;;;;5056373;28;20028;-65
2022/05/12 12:52:50;;;;;;;2.50;1.98;;;38.00;29.60;;;;;;5077615;28;20099;-63
2022/05/12 12:58:11;;;;;;;2.80;2.20;;;37.80;29.80;;;;;;5092819;28;20055;-65
2022/05/12 13:00:38;;;;;;;3.03;2.00;;;37.70;29.90;;;;;;5092057;28;20546;-65
2022/05/12 13:03:08;;;;;;;3.63;2.35;;;37.80;30.80;;;;;;5092496;28;20020;-64
2022/05/12 13:05:36;;;;;;;2.10;1.90;;;37.50;29.90;;;;;;5093132;28;20078;-66
2022/05/12 13:08:05;;;;;;;2.33;1.92;;;37.50;30.00;;;;;;5093685;28;20032;-65
2022/05/12 13:10:43;;;;;;;3.08;2.65;;;37.40;29.10;;;;;;5094339;28;20466;-67
2022/05/12 13:13:09;;;;;;;2.95;1.98;;;37.40;29.10;;;;;;5093878;28;20020;-66
2022/05/12 13:15:40;;;;;;;2.38;2.15;;;37.40;29.40;;;;;;5093088;28;20390;-66
2022/05/12 13:18:08;;;;;;;4.15;3.55;;;37.30;29.10;;;;;;5094326;28;20026;-67
2022/05/12 13:20:42;;;;;;;3.22;2.67;;;37.00;30.00;;;;;;5094417;28;20024;-65
2022/05/12 13:23:17;;;;;;;4.03;2.45;;;37.10;29.80;;;;;;5094033;28;20043;-66
2022/05/12 13:25:43;;;;;;;3.88;2.30;;;37.50;30.60;;;;;;5094105;28;20024;-65